Time,TemperatureF,DewpointF,PressureIn,WindDirection,WindDirectionDegrees,WindSpeedMPH,WindSpeedGustMPH,Humidity,HourlyPrecipIn,Conditions,Clouds,dailyrainin,SoftwareType,DateUTC
2013-01-23 00:00:00,10.3,3.4,30.31,NNW,333,2.0,3.0,73,0.00,,---,0.00,VWS V14.01,2013-01-23 05:00:00,
2013-01-23 00:01:00,10.3,3.4,30.32,North,355,3.0,4.0,73,0.00,,---,0.00,VWS V14.01,2013-01-23 05:01:00,
2013-01-23 00:06:00,10.3,3.4,30.31,WNW,301,2.0,4.0,73,0.00,,---,0.00,VWS V14.01,2013-01-23 05:06:00,
2013-01-23 00:11:00,10.3,3.4,30.31,NNW,340,2.0,3.0,73,0.00,,---,0.00,VWS V14.01,2013-01-23 05:11:00,
2013-01-23 00:16:00,10.3,3.4,30.31,NNE,15,3.0,4.0,73,0.00,,---,0.00,VWS V14.01,2013-01-23 05:16:00,
2013-01-23 00:21:00,10.3,3.4,30.31,NW,325,0.0,0.0,73,0.00,,---,0.00,VWS V14.01,2013-01-23 05:21:00,
2013-01-23 00:26:00,10.3,3.4,30.31,NNW,333,2.0,3.0,73,0.00,,---,0.00,VWS V14.01,2013-01-23 05:26:00,
2013-01-23 00:32:00,10.3,3.1,30.31,NW,310,5.0,7.0,72,0.00,,---,0.00,VWS V14.01,2013-01-23 05:32:00,
2013-01-23 00:37:00,10.2,3.3,30.31,NNW,336,3.0,4.0,73,0.00,,---,0.00,VWS V14.01,2013-01-23 05:37:00,
2013-01-23 00:42:00,10.2,3.0,30.31,NW,324,3.0,5.0,72,0.00,,---,0.00,VWS V14.01,2013-01-23 05:42:00,
2013-01-23 00:47:00,10.3,2.8,30.31,NW,308,3.0,4.0,71,0.00,,---,0.00,VWS V14.01,2013-01-23 05:47:00,
2013-01-23 00:52:00,10.2,2.7,30.31,NNW,346,1.0,5.0,71,0.00,,---,0.00,VWS V14.01,2013-01-23 05:52:00,
2013-01-23 00:57:00,10.1,2.6,30.31,WNW,295,4.0,5.0,71,0.00,,---,0.00,VWS V14.01,2013-01-23 05:57:00,
2013-01-23 01:02:00,10.1,2.3,30.31,WNW,298,4.0,4.0,70,0.00,,---,0.00,VWS V14.01,2013-01-23 06:02:00,
2013-01-23 01:07:00,10.1,2.3,30.31,NW,320,2.0,3.0,70,0.00,,---,0.00,VWS V14.01,2013-01-23 06:07:00,
2013-01-23 01:12:00,10.1,2.0,30.31,NW,312,2.0,3.0,69,0.00,,---,0.00,VWS V14.01,2013-01-23 06:12:00,
2013-01-23 01:17:00,10.1,1.7,30.31,WSW,253,2.0,5.0,68,0.00,,---,0.00,VWS V14.01,2013-01-23 06:17:00,
2013-01-23 01:22:00,10.1,1.7,30.31,NNW,331,1.0,2.0,68,0.00,,---,0.00,VWS V14.01,2013-01-23 06:22:00,
2013-01-23 01:27:00,10.1,1.7,30.31,NW,323,4.0,6.0,68,0.00,,---,0.00,VWS V14.01,2013-01-23 06:27:00,
2013-01-23 01:32:00,10.0,1.2,30.31,North,355,5.0,8.0,67,0.00,,---,0.00,VWS V14.01,2013-01-23 06:32:00,
2013-01-23 01:37:00,10.1,1.3,30.31,NNW,347,5.0,6.0,67,0.00,,---,0.00,VWS V14.01,2013-01-23 06:37:00,
2013-01-23 01:42:00,10.1,1.3,30.31,NW,326,3.0,5.0,67,0.00,,---,0.00,VWS V14.01,2013-01-23 06:42:00,
2013-01-23 01:47:00,10.1,1.3,30.31,North,360,4.0,6.0,67,0.00,,---,0.00,VWS V14.01,2013-01-23 06:47:00,
2013-01-23 01:52:00,10.1,1.3,30.32,West,269,9.0,15.0,67,0.00,,---,0.00,VWS V14.01,2013-01-23 06:52:00,
2013-01-23 01:57:00,10.1,1.7,30.32,NW,304,4.0,7.0,68,0.00,,---,0.00,VWS V14.01,2013-01-23 06:57:00,
2013-01-23 02:02:00,10.1,1.7,30.32,NNW,348,4.0,7.0,68,0.00,,---,0.00,VWS V14.01,2013-01-23 07:02:00,
2013-01-23 02:07:00,10.0,1.6,30.32,NW,313,6.0,7.0,68,0.00,,---,0.00,VWS V14.01,2013-01-23 07:07:00,
2013-01-23 02:12:00,10.0,1.6,30.32,WNW,300,3.0,8.0,68,0.00,,---,0.00,VWS V14.01,2013-01-23 07:12:00,
2013-01-23 02:17:00,10.0,1.9,30.33,NNW,337,2.0,4.0,69,0.00,,---,0.00,VWS V14.01,2013-01-23 07:17:00,
2013-01-23 02:22:00,9.9,1.8,30.33,NW,311,5.0,10.0,69,0.00,,---,0.00,VWS V14.01,2013-01-23 07:22:00,
2013-01-23 02:27:00,9.9,2.1,30.33,West,263,7.0,7.0,70,0.00,,---,0.00,VWS V14.01,2013-01-23 07:27:00,
2013-01-23 02:32:00,9.9,2.1,30.33,WNW,301,3.0,7.0,70,0.00,,---,0.00,VWS V14.01,2013-01-23 07:32:00,
2013-01-23 02:37:00,9.9,2.4,30.33,West,279,2.0,5.0,71,0.00,,---,0.00,VWS V14.01,2013-01-23 07:37:00,
2013-01-23 02:42:00,9.8,2.6,30.33,NW,313,1.0,3.0,72,0.00,,---,0.00,VWS V14.01,2013-01-23 07:42:00,
2013-01-23 02:47:00,9.8,2.6,30.33,WNW,299,3.0,3.0,72,0.00,,---,0.00,VWS V14.01,2013-01-23 07:47:00,
2013-01-23 02:52:00,9.7,2.8,30.33,WNW,302,2.0,5.0,73,0.00,,---,0.00,VWS V14.01,2013-01-23 07:52:00,
2013-01-23 02:57:00,9.7,2.8,30.33,NW,311,2.0,3.0,73,0.00,,---,0.00,VWS V14.01,2013-01-23 07:57:00,
2013-01-23 03:02:00,9.6,3.0,30.33,NW,315,0.0,3.0,74,0.00,,---,0.00,VWS V14.01,2013-01-23 08:02:00,
2013-01-23 03:07:00,9.6,3.0,30.33,NW,315,4.0,4.0,74,0.00,,---,0.00,VWS V14.01,2013-01-23 08:07:00,
2013-01-23 03:12:00,9.6,3.3,30.33,NW,304,3.0,4.0,75,0.00,,---,0.00,VWS V14.01,2013-01-23 08:12:00,
2013-01-23 03:17:00,9.5,2.9,30.33,NW,310,2.0,4.0,74,0.00,,---,0.00,VWS V14.01,2013-01-23 08:17:00,
2013-01-23 03:22:00,9.4,2.8,30.33,NNW,329,4.0,9.0,74,0.00,,---,0.00,VWS V14.01,2013-01-23 08:22:00,
2013-01-23 03:27:00,9.4,2.5,30.33,NW,319,3.0,6.0,73,0.00,,---,0.00,VWS V14.01,2013-01-23 08:27:00,
2013-01-23 03:32:00,9.3,2.4,30.34,NNW,333,6.0,7.0,73,0.00,,---,0.00,VWS V14.01,2013-01-23 08:32:00,
2013-01-23 03:37:00,9.2,2.0,30.34,NNW,341,7.0,9.0,72,0.00,,---,0.00,VWS V14.01,2013-01-23 08:37:00,
2013-01-23 03:42:00,9.2,2.0,30.34,NW,306,4.0,9.0,72,0.00,,---,0.00,VWS V14.01,2013-01-23 08:42:00,
2013-01-23 03:47:00,9.1,1.9,30.33,NW,304,2.0,5.0,72,0.00,,---,0.00,VWS V14.01,2013-01-23 08:47:00,
2013-01-23 03:52:00,9.1,1.9,30.33,WNW,283,6.0,8.0,72,0.00,,---,0.00,VWS V14.01,2013-01-23 08:52:00,
2013-01-23 03:57:00,9.0,1.8,30.33,North,355,3.0,6.0,72,0.00,,---,0.00,VWS V14.01,2013-01-23 08:57:00,
2013-01-23 04:02:00,8.9,1.7,30.33,NW,304,9.0,10.0,72,0.00,,---,0.00,VWS V14.01,2013-01-23 09:02:00,
2013-01-23 04:07:00,8.9,1.7,30.33,NW,326,9.0,9.0,72,0.00,,---,0.00,VWS V14.01,2013-01-23 09:07:00,
2013-01-23 04:12:00,8.8,1.6,30.33,NW,304,3.0,4.0,72,0.00,,---,0.00,VWS V14.01,2013-01-23 09:12:00,
2013-01-23 04:17:00,8.7,1.5,30.34,NW,304,10.0,10.0,72,0.00,,---,0.00,VWS V14.01,2013-01-23 09:17:00,
2013-01-23 04:22:00,8.7,1.5,30.34,WNW,298,5.0,10.0,72,0.00,,---,0.00,VWS V14.01,2013-01-23 09:22:00,
2013-01-23 04:27:00,8.7,1.2,30.34,NNW,331,8.0,8.0,71,0.00,,---,0.00,VWS V14.01,2013-01-23 09:27:00,
2013-01-23 04:32:00,8.7,1.2,30.34,NW,309,9.0,13.0,71,0.00,,---,0.00,VWS V14.01,2013-01-23 09:32:00,
2013-01-23 04:37:00,8.7,1.2,30.34,WNW,296,2.0,4.0,71,0.00,,---,0.00,VWS V14.01,2013-01-23 09:37:00,
2013-01-23 04:42:00,8.6,1.4,30.34,WNW,288,4.0,7.0,72,0.00,,---,0.00,VWS V14.01,2013-01-23 09:42:00,
2013-01-23 04:47:00,8.6,1.4,30.34,WNW,293,3.0,6.0,72,0.00,,---,0.00,VWS V14.01,2013-01-23 09:47:00,
2013-01-23 04:52:00,8.6,1.4,30.34,NW,309,5.0,9.0,72,0.00,,---,0.00,VWS V14.01,2013-01-23 09:52:00,
2013-01-23 04:57:00,8.6,1.4,30.34,North,10,5.0,9.0,72,0.00,,---,0.00,VWS V14.01,2013-01-23 09:57:00,
2013-01-23 05:02:00,8.5,1.3,30.34,WNW,289,4.0,8.0,72,0.00,,---,0.00,VWS V14.01,2013-01-23 10:02:00,
2013-01-23 05:07:00,8.5,1.3,30.33,NW,308,2.0,2.0,72,0.00,,---,0.00,VWS V14.01,2013-01-23 10:07:00,
2013-01-23 05:12:00,8.5,1.6,30.33,NW,326,6.0,7.0,73,0.00,,---,0.00,VWS V14.01,2013-01-23 10:12:00,
2013-01-23 05:17:00,8.5,1.6,30.33,NNW,327,5.0,6.0,73,0.00,,---,0.00,VWS V14.01,2013-01-23 10:17:00,
2013-01-23 05:22:00,8.5,1.6,30.34,NW,305,1.0,3.0,73,0.00,,---,0.00,VWS V14.01,2013-01-23 10:22:00,
2013-01-23 05:27:00,8.5,1.9,30.33,WNW,288,1.0,4.0,74,0.00,,---,0.00,VWS V14.01,2013-01-23 10:27:00,
2013-01-23 05:32:00,8.5,1.9,30.34,NNW,332,2.0,2.0,74,0.00,,---,0.00,VWS V14.01,2013-01-23 10:32:00,
2013-01-23 05:37:00,8.5,1.9,30.34,NNE,26,2.0,4.0,74,0.00,,---,0.00,VWS V14.01,2013-01-23 10:37:00,
2013-01-23 05:42:00,8.5,1.9,30.34,NNW,348,3.0,5.0,74,0.00,,---,0.00,VWS V14.01,2013-01-23 10:42:00,
2013-01-23 05:47:00,8.5,1.9,30.34,NNW,328,3.0,4.0,74,0.00,,---,0.00,VWS V14.01,2013-01-23 10:47:00,
2013-01-23 05:52:00,8.5,1.9,30.34,NW,304,2.0,3.0,74,0.00,,---,0.00,VWS V14.01,2013-01-23 10:52:00,
2013-01-23 05:57:00,8.5,1.9,30.34,WNW,299,2.0,2.0,74,0.00,,---,0.00,VWS V14.01,2013-01-23 10:57:00,
2013-01-23 06:02:00,8.5,1.9,30.34,NW,319,3.0,3.0,74,0.00,,---,0.00,VWS V14.01,2013-01-23 11:02:00,
2013-01-23 06:07:00,8.4,2.1,30.34,NW,325,1.0,3.0,75,0.00,,---,0.00,VWS V14.01,2013-01-23 11:07:00,
2013-01-23 06:12:00,8.4,2.1,30.34,NW,325,1.0,3.0,75,0.00,,---,0.00,VWS V14.01,2013-01-23 11:12:00,
2013-01-23 06:17:00,8.4,2.1,30.35,NW,325,2.0,3.0,75,0.00,,---,0.00,VWS V14.01,2013-01-23 11:17:00,
2013-01-23 06:22:00,8.4,1.8,30.35,NW,325,2.0,3.0,74,0.00,,---,0.00,VWS V14.01,2013-01-23 11:22:00,
2013-01-23 06:27:00,8.4,2.1,30.35,West,268,2.0,3.0,75,0.00,,---,0.00,VWS V14.01,2013-01-23 11:27:00,
2013-01-23 06:32:00,8.5,1.9,30.35,WNW,294,1.0,3.0,74,0.00,,---,0.00,VWS V14.01,2013-01-23 11:32:00,
2013-01-23 06:37:00,8.5,1.9,30.35,NW,325,3.0,3.0,74,0.00,,---,0.00,VWS V14.01,2013-01-23 11:37:00,
2013-01-23 06:42:00,8.4,1.8,30.35,NNW,327,4.0,5.0,74,0.00,,---,0.00,VWS V14.01,2013-01-23 11:42:00,
2013-01-23 06:47:00,8.5,1.6,30.35,NW,317,2.0,3.0,73,0.00,,---,0.00,VWS V14.01,2013-01-23 11:47:00,
2013-01-23 06:52:00,8.5,1.9,30.35,NW,304,3.0,4.0,74,0.00,,---,0.00,VWS V14.01,2013-01-23 11:52:00,
2013-01-23 06:57:00,8.5,1.9,30.35,NW,314,3.0,5.0,74,0.00,,---,0.00,VWS V14.01,2013-01-23 11:57:00,
2013-01-23 07:02:00,8.5,1.9,30.35,NW,304,3.0,4.0,74,0.00,,---,0.00,VWS V14.01,2013-01-23 12:02:00,
2013-01-23 07:07:00,8.6,2.3,30.35,NW,309,3.0,3.0,75,0.00,,---,0.00,VWS V14.01,2013-01-23 12:07:00,
2013-01-23 07:12:00,8.6,2.3,30.35,WNW,288,3.0,6.0,75,0.00,,---,0.00,VWS V14.01,2013-01-23 12:12:00,
2013-01-23 07:17:00,8.6,2.3,30.35,WNW,288,2.0,2.0,75,0.00,,---,0.00,VWS V14.01,2013-01-23 12:17:00,
2013-01-23 07:22:00,8.7,2.4,30.35,WNW,288,2.0,2.0,75,0.00,,---,0.00,VWS V14.01,2013-01-23 12:22:00,
2013-01-23 07:27:00,8.7,2.4,30.35,West,274,3.0,3.0,75,0.00,,---,0.00,VWS V14.01,2013-01-23 12:27:00,
2013-01-23 07:32:00,8.7,2.4,30.35,NNW,346,1.0,4.0,75,0.00,,---,0.00,VWS V14.01,2013-01-23 12:32:00,
2013-01-23 07:37:00,8.8,2.2,30.35,NW,306,1.0,4.0,74,0.00,,---,0.00,VWS V14.01,2013-01-23 12:37:00,
2013-01-23 07:42:00,8.8,2.2,30.35,West,274,5.0,5.0,74,0.00,,---,0.00,VWS V14.01,2013-01-23 12:42:00,
2013-01-23 07:47:00,8.9,2.3,30.35,NW,306,2.0,4.0,74,0.00,,---,0.00,VWS V14.01,2013-01-23 12:47:00,
2013-01-23 07:52:00,8.8,2.2,30.35,West,278,1.0,4.0,74,0.00,,---,0.00,VWS V14.01,2013-01-23 12:52:00,
2013-01-23 07:57:00,8.9,2.3,30.35,NW,325,3.0,3.0,74,0.00,,---,0.00,VWS V14.01,2013-01-23 12:57:00,
2013-01-23 08:02:00,9.0,2.1,30.35,NNW,340,2.0,5.0,73,0.00,,---,0.00,VWS V14.01,2013-01-23 13:02:00,
2013-01-23 08:07:00,9.0,2.1,30.35,NW,311,2.0,8.0,73,0.00,,---,0.00,VWS V14.01,2013-01-23 13:07:00,
2013-01-23 08:12:00,9.0,2.1,30.35,NW,320,4.0,7.0,73,0.00,,---,0.00,VWS V14.01,2013-01-23 13:12:00,
2013-01-23 08:17:00,9.1,2.2,30.35,NW,309,3.0,5.0,73,0.00,,---,0.00,VWS V14.01,2013-01-23 13:17:00,
2013-01-23 08:22:00,9.2,2.3,30.35,WNW,286,4.0,7.0,73,0.00,,---,0.00,VWS V14.01,2013-01-23 13:22:00,
2013-01-23 08:27:00,9.4,2.5,30.35,NNW,340,5.0,5.0,73,0.00,,---,0.00,VWS V14.01,2013-01-23 13:27:00,
2013-01-23 08:32:00,9.5,2.6,30.35,WNW,287,7.0,9.0,73,0.00,,---,0.00,VWS V14.01,2013-01-23 13:32:00,
2013-01-23 08:37:00,9.6,2.1,30.35,West,277,6.0,8.0,71,0.00,,---,0.00,VWS V14.01,2013-01-23 13:37:00,
2013-01-23 08:42:00,9.9,2.4,30.35,WNW,284,3.0,4.0,71,0.00,,---,0.00,VWS V14.01,2013-01-23 13:42:00,
2013-01-23 08:47:00,10.4,2.9,30.36,NW,311,3.0,7.0,71,0.00,,---,0.00,VWS V14.01,2013-01-23 13:47:00,
2013-01-23 08:52:00,11.0,2.8,30.36,WNW,300,4.0,4.0,69,0.00,,---,0.00,VWS V14.01,2013-01-23 13:52:00,
2013-01-23 08:57:00,11.2,3.0,30.36,NW,324,2.0,5.0,69,0.00,,---,0.00,VWS V14.01,2013-01-23 13:57:00,
2013-01-23 09:02:00,11.6,2.8,30.36,WNW,300,8.0,11.0,67,0.00,,---,0.00,VWS V14.01,2013-01-23 14:02:00,
2013-01-23 09:07:00,12.1,2.9,30.36,WNW,292,4.0,11.0,66,0.00,,---,0.00,VWS V14.01,2013-01-23 14:07:00,
2013-01-23 09:12:00,12.2,2.7,30.36,NW,309,5.0,13.0,65,0.00,,---,0.00,VWS V14.01,2013-01-23 14:12:00,
2013-01-23 09:17:00,12.1,2.3,30.36,NW,311,5.0,7.0,64,0.00,,---,0.00,VWS V14.01,2013-01-23 14:17:00,
2013-01-23 09:22:00,11.9,2.1,30.36,NNW,341,6.0,12.0,64,0.00,,---,0.00,VWS V14.01,2013-01-23 14:22:00,
2013-01-23 09:27:00,12.1,1.6,30.36,WNW,286,9.0,9.0,62,0.00,,---,0.00,VWS V14.01,2013-01-23 14:27:00,
2013-01-23 09:32:00,12.5,2.0,30.36,West,263,6.0,10.0,62,0.00,,---,0.00,VWS V14.01,2013-01-23 14:32:00,
2013-01-23 09:37:00,12.6,1.7,30.36,West,269,8.0,9.0,61,0.00,,---,0.00,VWS V14.01,2013-01-23 14:37:00,
2013-01-23 09:42:00,12.5,1.6,30.37,North,9,6.0,10.0,61,0.00,,---,0.00,VWS V14.01,2013-01-23 14:42:00,
2013-01-23 09:47:00,12.6,1.7,30.36,NW,310,8.0,10.0,61,0.00,,---,0.00,VWS V14.01,2013-01-23 14:47:00,
2013-01-23 09:52:00,12.9,1.6,30.36,SSW,212,6.0,9.0,60,0.00,,---,0.00,VWS V14.01,2013-01-23 14:52:00,
2013-01-23 09:57:00,13.4,2.1,30.36,WNW,300,4.0,9.0,60,0.00,,---,0.00,VWS V14.01,2013-01-23 14:57:00,
2013-01-23 10:02:00,13.8,1.8,30.36,NW,308,7.0,8.0,58,0.00,,---,0.00,VWS V14.01,2013-01-23 15:02:00,
2013-01-23 10:07:00,14.1,2.0,30.36,NW,309,7.0,9.0,58,0.00,,---,0.00,VWS V14.01,2013-01-23 15:07:00,
2013-01-23 10:12:00,14.0,2.0,30.36,West,271,7.0,7.0,58,0.00,,---,0.00,VWS V14.01,2013-01-23 15:12:00,
2013-01-23 10:17:00,14.4,2.0,30.36,NW,313,6.0,8.0,57,0.00,,---,0.00,VWS V14.01,2013-01-23 15:17:00,
2013-01-23 10:22:00,14.4,2.0,30.36,NW,325,6.0,7.0,57,0.00,,---,0.00,VWS V14.01,2013-01-23 15:22:00,
2013-01-23 10:27:00,14.3,1.9,30.36,WNW,293,3.0,6.0,57,0.00,,---,0.00,VWS V14.01,2013-01-23 15:27:00,
2013-01-23 10:32:00,15.0,2.5,30.36,NW,320,7.0,14.0,57,0.00,,---,0.00,VWS V14.01,2013-01-23 15:32:00,
2013-01-23 10:37:00,15.4,2.5,30.36,NW,326,6.0,9.0,56,0.00,,---,0.00,VWS V14.01,2013-01-23 15:37:00,
2013-01-23 10:42:00,15.6,2.7,30.35,NW,308,5.0,11.0,56,0.00,,---,0.00,VWS V14.01,2013-01-23 15:42:00,
2013-01-23 10:47:00,15.9,2.6,30.35,WNW,300,5.0,7.0,55,0.00,,---,0.00,VWS V14.01,2013-01-23 15:47:00,
2013-01-23 10:52:00,16.1,2.4,30.35,NW,319,6.0,8.0,54,0.00,,---,0.00,VWS V14.01,2013-01-23 15:52:00,
2013-01-23 10:57:00,16.3,3.0,30.35,WNW,300,6.0,10.0,55,0.00,,---,0.00,VWS V14.01,2013-01-23 15:57:00,
2013-01-23 11:02:00,16.4,2.7,30.34,West,271,10.0,10.0,54,0.00,,---,0.00,VWS V14.01,2013-01-23 16:02:00,
2013-01-23 11:07:00,16.4,2.3,30.34,West,260,9.0,14.0,53,0.00,,---,0.00,VWS V14.01,2013-01-23 16:07:00,
2013-01-23 11:12:00,16.8,3.5,30.33,WNW,285,6.0,7.0,55,0.00,,---,0.00,VWS V14.01,2013-01-23 16:12:00,
2013-01-23 11:17:00,17.7,3.9,30.33,NW,307,5.0,7.0,54,0.00,,---,0.00,VWS V14.01,2013-01-23 16:17:00,
2013-01-23 11:22:00,17.9,4.1,30.33,NW,306,2.0,6.0,54,0.00,,---,0.00,VWS V14.01,2013-01-23 16:22:00,
2013-01-23 11:27:00,17.8,3.6,30.32,NW,304,5.0,7.0,53,0.00,,---,0.00,VWS V14.01,2013-01-23 16:27:00,
2013-01-23 11:32:00,17.9,3.7,30.32,NW,321,5.0,11.0,53,0.00,,---,0.00,VWS V14.01,2013-01-23 16:32:00,
2013-01-23 11:37:00,17.5,2.9,30.31,WNW,288,11.0,16.0,52,0.00,,---,0.00,VWS V14.01,2013-01-23 16:37:00,
2013-01-23 11:42:00,17.5,2.9,30.31,WNW,296,7.0,10.0,52,0.00,,---,0.00,VWS V14.01,2013-01-23 16:42:00,
2013-01-23 11:47:00,17.9,4.1,30.31,NNW,330,8.0,9.0,54,0.00,,---,0.00,VWS V14.01,2013-01-23 16:47:00,
2013-01-23 11:52:00,18.0,3.3,30.31,NW,311,6.0,6.0,52,0.00,,---,0.00,VWS V14.01,2013-01-23 16:52:00,
2013-01-23 11:57:00,18.0,3.8,30.31,NW,315,6.0,11.0,53,0.00,,---,0.00,VWS V14.01,2013-01-23 16:57:00,
2013-01-23 12:02:00,17.9,3.7,30.31,WNW,296,4.0,8.0,53,0.00,,---,0.00,VWS V14.01,2013-01-23 17:02:00,
2013-01-23 12:07:00,17.6,3.4,30.30,NW,325,2.0,4.0,53,0.00,,---,0.00,VWS V14.01,2013-01-23 17:07:00,
2013-01-23 12:12:00,17.8,3.6,30.30,WNW,284,7.0,9.0,53,0.00,,---,0.00,VWS V14.01,2013-01-23 17:12:00,
2013-01-23 12:17:00,17.8,3.2,30.30,West,270,8.0,9.0,52,0.00,,---,0.00,VWS V14.01,2013-01-23 17:17:00,
2013-01-23 12:22:00,18.1,3.5,30.30,West,266,7.0,7.0,52,0.00,,---,0.00,VWS V14.01,2013-01-23 17:22:00,
2013-01-23 12:27:00,18.3,3.2,30.29,West,280,10.0,10.0,51,0.00,,---,0.00,VWS V14.01,2013-01-23 17:27:00,
2013-01-23 12:32:00,18.4,3.3,30.29,West,271,8.0,13.0,51,0.00,,---,0.00,VWS V14.01,2013-01-23 17:32:00,
2013-01-23 12:37:00,18.3,3.2,30.28,NW,305,7.0,8.0,51,0.00,,---,0.00,VWS V14.01,2013-01-23 17:37:00,
2013-01-23 12:42:00,18.0,2.5,30.28,WNW,287,7.0,9.0,50,0.00,,---,0.00,VWS V14.01,2013-01-23 17:42:00,
2013-01-23 12:47:00,18.1,3.5,30.28,WNW,301,10.0,13.0,52,0.00,,---,0.00,VWS V14.01,2013-01-23 17:47:00,
2013-01-23 12:52:00,18.0,2.9,30.28,NW,315,7.0,11.0,51,0.00,,---,0.00,VWS V14.01,2013-01-23 17:52:00,
2013-01-23 12:57:00,17.9,2.8,30.28,NW,304,5.0,8.0,51,0.00,,---,0.00,VWS V14.01,2013-01-23 17:57:00,
2013-01-23 13:02:00,17.8,3.2,30.28,West,276,9.0,9.0,52,0.00,,---,0.00,VWS V14.01,2013-01-23 18:02:00,
2013-01-23 13:07:00,17.5,2.9,30.27,West,277,5.0,9.0,52,0.00,,---,0.00,VWS V14.01,2013-01-23 18:07:00,
2013-01-23 13:12:00,17.6,3.4,30.27,WNW,283,6.0,6.0,53,0.00,,---,0.00,VWS V14.01,2013-01-23 18:12:00,
2013-01-23 13:17:00,18.1,3.5,30.27,WNW,289,8.0,11.0,52,0.00,,---,0.00,VWS V14.01,2013-01-23 18:17:00,
2013-01-23 13:22:00,18.1,3.5,30.27,WNW,292,6.0,6.0,52,0.00,,---,0.00,VWS V14.01,2013-01-23 18:22:00,
2013-01-23 13:27:00,18.4,3.3,30.27,NW,304,4.0,7.0,51,0.00,,---,0.00,VWS V14.01,2013-01-23 18:27:00,
2013-01-23 13:32:00,18.2,3.1,30.27,WNW,289,7.0,8.0,51,0.00,,---,0.00,VWS V14.01,2013-01-23 18:32:00,
2013-01-23 13:37:00,17.9,2.8,30.27,NW,322,4.0,13.0,51,0.00,,---,0.00,VWS V14.01,2013-01-23 18:37:00,
2013-01-23 13:42:00,17.9,3.3,30.27,WNW,290,5.0,5.0,52,0.00,,---,0.00,VWS V14.01,2013-01-23 18:42:00,
2013-01-23 13:47:00,18.1,3.5,30.27,WNW,297,4.0,9.0,52,0.00,,---,0.00,VWS V14.01,2013-01-23 18:47:00,
2013-01-23 13:52:00,18.4,3.7,30.26,West,278,10.0,14.0,52,0.00,,---,0.00,VWS V14.01,2013-01-23 18:52:00,
2013-01-23 13:57:00,18.2,3.5,30.26,WNW,294,6.0,6.0,52,0.00,,---,0.00,VWS V14.01,2013-01-23 18:57:00,
2013-01-23 14:02:00,18.3,3.6,30.26,WNW,291,5.0,7.0,52,0.00,,---,0.00,VWS V14.01,2013-01-23 19:02:00,
2013-01-23 14:07:00,18.2,3.5,30.26,NW,304,4.0,5.0,52,0.00,,---,0.00,VWS V14.01,2013-01-23 19:07:00,
2013-01-23 14:12:00,18.5,4.2,30.26,NNW,327,2.0,10.0,53,0.00,,---,0.00,VWS V14.01,2013-01-23 19:12:00,
2013-01-23 14:17:00,18.3,3.6,30.26,NW,309,7.0,8.0,52,0.00,,---,0.00,VWS V14.01,2013-01-23 19:17:00,
2013-01-23 14:22:00,18.3,4.1,30.26,WSW,253,6.0,6.0,53,0.00,,---,0.00,VWS V14.01,2013-01-23 19:22:00,
2013-01-23 14:27:00,18.6,4.3,30.26,WNW,286,5.0,9.0,53,0.00,,---,0.00,VWS V14.01,2013-01-23 19:27:00,
2013-01-23 14:32:00,18.5,4.2,30.25,WNW,288,7.0,7.0,53,0.00,,---,0.00,VWS V14.01,2013-01-23 19:32:00,
2013-01-23 14:37:00,18.5,3.8,30.25,West,272,4.0,7.0,52,0.00,,---,0.00,VWS V14.01,2013-01-23 19:37:00,
2013-01-23 14:42:00,18.8,4.5,30.25,NW,304,5.0,7.0,53,0.00,,---,0.00,VWS V14.01,2013-01-23 19:42:00,
2013-01-23 14:47:00,18.9,4.2,30.25,NW,305,4.0,7.0,52,0.00,,---,0.00,VWS V14.01,2013-01-23 19:47:00,
2013-01-23 14:52:00,19.0,4.3,30.25,WNW,288,8.0,8.0,52,0.00,,---,0.00,VWS V14.01,2013-01-23 19:52:00,
2013-01-23 14:57:00,19.0,3.9,30.25,WSW,249,5.0,7.0,51,0.00,,---,0.00,VWS V14.01,2013-01-23 19:57:00,
2013-01-23 15:02:00,19.0,4.3,30.25,WNW,296,8.0,8.0,52,0.00,,---,0.00,VWS V14.01,2013-01-23 20:02:00,
2013-01-23 15:07:00,18.9,4.2,30.26,NW,320,11.0,11.0,52,0.00,,---,0.00,VWS V14.01,2013-01-23 20:07:00,
2013-01-23 15:12:00,18.9,3.8,30.26,WNW,302,13.0,13.0,51,0.00,,---,0.00,VWS V14.01,2013-01-23 20:12:00,
2013-01-23 15:17:00,18.7,4.0,30.26,WNW,282,10.0,10.0,52,0.00,,---,0.00,VWS V14.01,2013-01-23 20:17:00,
2013-01-23 15:22:00,18.6,3.5,30.25,NW,305,5.0,6.0,51,0.00,,---,0.00,VWS V14.01,2013-01-23 20:22:00,
2013-01-23 15:27:00,18.6,3.5,30.25,NW,304,8.0,12.0,51,0.00,,---,0.00,VWS V14.01,2013-01-23 20:27:00,
2013-01-23 15:32:00,18.6,3.5,30.25,NNW,342,4.0,9.0,51,0.00,,---,0.00,VWS V14.01,2013-01-23 20:32:00,
2013-01-23 15:37:00,18.7,3.6,30.25,WNW,287,5.0,5.0,51,0.00,,---,0.00,VWS V14.01,2013-01-23 20:37:00,
2013-01-23 15:42:00,18.6,3.1,30.25,NW,315,5.0,7.0,50,0.00,,---,0.00,VWS V14.01,2013-01-23 20:42:00,
2013-01-23 15:47:00,18.6,3.5,30.25,WNW,296,6.0,7.0,51,0.00,,---,0.00,VWS V14.01,2013-01-23 20:47:00,
2013-01-23 15:52:00,18.7,3.6,30.25,West,262,8.0,8.0,51,0.00,,---,0.00,VWS V14.01,2013-01-23 20:52:00,
2013-01-23 15:57:00,18.7,3.6,30.24,West,259,7.0,7.0,51,0.00,,---,0.00,VWS V14.01,2013-01-23 20:57:00,
2013-01-23 16:02:00,18.6,3.1,30.24,NW,319,5.0,5.0,50,0.00,,---,0.00,VWS V14.01,2013-01-23 21:02:00,
2013-01-23 16:07:00,18.6,3.1,30.24,NW,309,6.0,6.0,50,0.00,,---,0.00,VWS V14.01,2013-01-23 21:07:00,
2013-01-23 16:12:00,18.5,3.0,30.24,WNW,282,8.0,9.0,50,0.00,,---,0.00,VWS V14.01,2013-01-23 21:12:00,
2013-01-23 16:17:00,18.5,3.4,30.24,WNW,292,6.0,7.0,51,0.00,,---,0.00,VWS V14.01,2013-01-23 21:17:00,
2013-01-23 16:22:00,18.4,2.9,30.24,NNW,329,6.0,7.0,50,0.00,,---,0.00,VWS V14.01,2013-01-23 21:22:00,
2013-01-23 16:27:00,18.2,3.1,30.24,NNW,333,3.0,4.0,51,0.00,,---,0.00,VWS V14.01,2013-01-23 21:27:00,
2013-01-23 16:32:00,18.1,3.0,30.23,NW,306,5.0,7.0,51,0.00,,---,0.00,VWS V14.01,2013-01-23 21:32:00,
2013-01-23 16:37:00,18.0,2.9,30.23,West,261,5.0,10.0,51,0.00,,---,0.00,VWS V14.01,2013-01-23 21:37:00,
2013-01-23 16:42:00,18.0,3.3,30.23,NW,326,3.0,6.0,52,0.00,,---,0.00,VWS V14.01,2013-01-23 21:42:00,
2013-01-23 16:47:00,18.0,2.9,30.23,West,281,8.0,11.0,51,0.00,,---,0.00,VWS V14.01,2013-01-23 21:47:00,
2013-01-23 16:52:00,18.0,2.9,30.24,WNW,283,5.0,5.0,51,0.00,,---,0.00,VWS V14.01,2013-01-23 21:52:00,
2013-01-23 16:57:00,18.0,3.3,30.23,West,277,6.0,6.0,52,0.00,,---,0.00,VWS V14.01,2013-01-23 21:57:00,
2013-01-23 17:02:00,17.9,3.3,30.23,WNW,295,6.0,6.0,52,0.00,,---,0.00,VWS V14.01,2013-01-23 22:02:00,
2013-01-23 17:07:00,17.9,3.3,30.23,West,276,3.0,7.0,52,0.00,,---,0.00,VWS V14.01,2013-01-23 22:07:00,
2013-01-23 17:12:00,17.9,3.3,30.23,WNW,298,2.0,7.0,52,0.00,,---,0.00,VWS V14.01,2013-01-23 22:12:00,
2013-01-23 17:17:00,17.8,3.2,30.23,NW,319,6.0,6.0,52,0.00,,---,0.00,VWS V14.01,2013-01-23 22:17:00,
2013-01-23 17:22:00,17.7,3.1,30.23,NW,313,5.0,6.0,52,0.00,,---,0.00,VWS V14.01,2013-01-23 22:22:00,
2013-01-23 17:27:00,17.7,3.5,30.23,WNW,289,4.0,5.0,53,0.00,,---,0.00,VWS V14.01,2013-01-23 22:27:00,
2013-01-23 17:32:00,17.7,3.5,30.23,NW,324,2.0,3.0,53,0.00,,---,0.00,VWS V14.01,2013-01-23 22:32:00,
2013-01-23 17:37:00,17.7,3.5,30.23,NW,309,0.0,3.0,53,0.00,,---,0.00,VWS V14.01,2013-01-23 22:37:00,
2013-01-23 17:42:00,17.7,3.5,30.23,NW,316,2.0,6.0,53,0.00,,---,0.00,VWS V14.01,2013-01-23 22:42:00,
2013-01-23 17:47:00,17.7,3.9,30.23,NW,309,2.0,5.0,54,0.00,,---,0.00,VWS V14.01,2013-01-23 22:47:00,
2013-01-23 17:52:00,17.7,3.5,30.23,NW,315,5.0,6.0,53,0.00,,---,0.00,VWS V14.01,2013-01-23 22:52:00,
2013-01-23 17:57:00,17.7,3.9,30.23,West,271,1.0,2.0,54,0.00,,---,0.00,VWS V14.01,2013-01-23 22:57:00,
2013-01-23 18:02:00,17.7,3.9,30.23,WNW,288,2.0,2.0,54,0.00,,---,0.00,VWS V14.01,2013-01-23 23:02:00,
2013-01-23 18:07:00,17.7,3.5,30.22,NW,323,2.0,4.0,53,0.00,,---,0.00,VWS V14.01,2013-01-23 23:07:00,
2013-01-23 18:12:00,17.7,3.9,30.22,NW,323,2.0,3.0,54,0.00,,---,0.00,VWS V14.01,2013-01-23 23:12:00,
2013-01-23 18:17:00,17.7,3.9,30.22,NNW,335,1.0,3.0,54,0.00,,---,0.00,VWS V14.01,2013-01-23 23:17:00,
2013-01-23 18:22:00,17.7,3.9,30.22,NW,321,1.0,3.0,54,0.00,,---,0.00,VWS V14.01,2013-01-23 23:22:00,
2013-01-23 18:27:00,17.7,3.9,30.21,North,9,1.0,2.0,54,0.00,,---,0.00,VWS V14.01,2013-01-23 23:27:00,
2013-01-23 18:32:00,17.7,3.9,30.21,NW,306,1.0,3.0,54,0.00,,---,0.00,VWS V14.01,2013-01-23 23:32:00,
2013-01-23 18:37:00,17.7,4.3,30.21,NW,306,1.0,2.0,55,0.00,,---,0.00,VWS V14.01,2013-01-23 23:37:00,
2013-01-23 18:42:00,17.7,4.7,30.21,WNW,295,1.0,2.0,56,0.00,,---,0.00,VWS V14.01,2013-01-23 23:42:00,
2013-01-23 18:47:00,17.8,4.0,30.21,WNW,298,2.0,2.0,54,0.00,,---,0.00,VWS V14.01,2013-01-23 23:47:00,
2013-01-23 18:52:00,17.8,4.0,30.21,NNW,332,2.0,3.0,54,0.00,,---,0.00,VWS V14.01,2013-01-23 23:52:00,
2013-01-23 18:57:00,17.8,4.0,30.21,WNW,300,2.0,2.0,54,0.00,,---,0.00,VWS V14.01,2013-01-23 23:57:00,
2013-01-23 19:02:00,17.8,4.8,30.20,WNW,300,0.0,1.0,56,0.00,,---,0.00,VWS V14.01,2013-01-24 00:02:00,
2013-01-23 19:07:00,17.9,4.5,30.20,WNW,300,0.0,2.0,55,0.00,,---,0.00,VWS V14.01,2013-01-24 00:07:00,
2013-01-23 19:12:00,17.9,4.9,30.20,WNW,300,1.0,1.0,56,0.00,,---,0.00,VWS V14.01,2013-01-24 00:12:00,
2013-01-23 19:17:00,17.9,4.9,30.20,WNW,300,1.0,2.0,56,0.00,,---,0.00,VWS V14.01,2013-01-24 00:17:00,
2013-01-23 19:22:00,17.9,4.9,30.20,WNW,300,1.0,2.0,56,0.00,,---,0.00,VWS V14.01,2013-01-24 00:22:00,
2013-01-23 19:27:00,17.9,4.9,30.20,WNW,300,1.0,2.0,56,0.00,,---,0.00,VWS V14.01,2013-01-24 00:27:00,
2013-01-23 19:32:00,17.9,5.2,30.20,WNW,303,2.0,5.0,57,0.00,,---,0.00,VWS V14.01,2013-01-24 00:32:00,
2013-01-23 19:37:00,17.9,5.2,30.20,WNW,301,1.0,3.0,57,0.00,,---,0.00,VWS V14.01,2013-01-24 00:37:00,
2013-01-23 19:42:00,18.0,5.7,30.20,WNW,301,2.0,3.0,58,0.00,,---,0.00,VWS V14.01,2013-01-24 00:42:00,
2013-01-23 19:47:00,17.9,5.2,30.19,WNW,301,1.0,3.0,57,0.00,,---,0.00,VWS V14.01,2013-01-24 00:47:00,
2013-01-23 19:52:00,18.0,5.7,30.20,WNW,301,0.0,1.0,58,0.00,,---,0.00,VWS V14.01,2013-01-24 00:52:00,
2013-01-23 19:57:00,18.0,5.7,30.20,WNW,301,1.0,2.0,58,0.00,,---,0.00,VWS V14.01,2013-01-24 00:57:00,
2013-01-23 20:02:00,18.0,5.7,30.20,WNW,301,1.0,3.0,58,0.00,,---,0.00,VWS V14.01,2013-01-24 01:02:00,
2013-01-23 20:07:00,18.0,5.7,30.20,NNW,340,4.0,6.0,58,0.00,,---,0.00,VWS V14.01,2013-01-24 01:07:00,
2013-01-23 20:12:00,18.0,6.1,30.20,NW,319,2.0,2.0,59,0.00,,---,0.00,VWS V14.01,2013-01-24 01:12:00,
2013-01-23 20:17:00,18.1,6.6,30.20,NW,319,2.0,2.0,60,0.00,,---,0.00,VWS V14.01,2013-01-24 01:17:00,
2013-01-23 20:22:00,18.1,6.6,30.20,WNW,296,2.0,2.0,60,0.00,,---,0.00,VWS V14.01,2013-01-24 01:22:00,
2013-01-23 20:27:00,18.1,7.3,30.21,NNW,348,0.0,2.0,62,0.00,,---,0.00,VWS V14.01,2013-01-24 01:27:00,
2013-01-23 20:32:00,18.1,8.0,30.21,NW,326,2.0,2.0,64,0.00,,---,0.00,VWS V14.01,2013-01-24 01:32:00,
2013-01-23 20:37:00,18.1,8.7,30.20,NW,326,2.0,3.0,66,0.00,,---,0.00,VWS V14.01,2013-01-24 01:37:00,
2013-01-23 20:42:00,18.0,8.9,30.20,NW,326,2.0,2.0,67,0.00,,---,0.00,VWS V14.01,2013-01-24 01:42:00,
2013-01-23 20:47:00,17.9,9.1,30.20,NNW,340,2.0,3.0,68,0.00,,---,0.00,VWS V14.01,2013-01-24 01:47:00,
2013-01-23 20:52:00,17.7,9.6,30.19,NNW,341,3.0,4.0,70,0.00,,---,0.00,VWS V14.01,2013-01-24 01:52:00,
2013-01-23 20:57:00,17.6,9.8,30.19,NW,323,1.0,2.0,71,0.00,,---,0.00,VWS V14.01,2013-01-24 01:57:00,
2013-01-23 21:02:00,17.5,9.7,30.18,NNW,339,1.0,2.0,71,0.00,,---,0.00,VWS V14.01,2013-01-24 02:02:00,
2013-01-23 21:07:00,17.3,10.1,30.19,NNW,339,1.0,3.0,73,0.00,,---,0.00,VWS V14.01,2013-01-24 02:07:00,
2013-01-23 21:12:00,17.3,10.8,30.19,NW,316,3.0,3.0,75,0.00,,---,0.00,VWS V14.01,2013-01-24 02:12:00,
2013-01-23 21:17:00,17.2,10.9,30.19,NW,316,1.0,2.0,76,0.00,,---,0.00,VWS V14.01,2013-01-24 02:17:00,
2013-01-23 21:22:00,17.2,11.2,30.18,NW,316,1.0,1.0,77,0.00,,---,0.00,VWS V14.01,2013-01-24 02:22:00,
2013-01-23 21:27:00,17.2,11.2,30.18,NW,316,1.0,1.0,77,0.00,,---,0.00,VWS V14.01,2013-01-24 02:27:00,
2013-01-23 21:32:00,17.1,11.1,30.18,NW,316,0.0,0.0,77,0.00,,---,0.00,VWS V14.01,2013-01-24 02:32:00,
2013-01-23 21:37:00,17.1,11.4,30.18,NW,316,0.0,2.0,78,0.00,,---,0.00,VWS V14.01,2013-01-24 02:37:00,
2013-01-23 21:42:00,17.1,11.7,30.18,NW,316,0.0,1.0,79,0.00,,---,0.00,VWS V14.01,2013-01-24 02:42:00,
2013-01-23 21:47:00,17.0,11.6,30.18,NW,316,0.0,1.0,79,0.00,,---,0.00,VWS V14.01,2013-01-24 02:47:00,
2013-01-23 21:52:00,17.0,11.9,30.18,NW,316,0.0,0.0,80,0.00,,---,0.00,VWS V14.01,2013-01-24 02:52:00,
2013-01-23 21:57:00,17.0,12.2,30.18,NW,316,0.0,0.0,81,0.00,,---,0.00,VWS V14.01,2013-01-24 02:57:00,
2013-01-23 22:02:00,17.0,12.2,30.18,NW,316,0.0,0.0,81,0.00,,---,0.00,VWS V14.01,2013-01-24 03:02:00,
2013-01-23 22:07:00,17.0,12.2,30.17,NW,316,0.0,0.0,81,0.00,,---,0.00,VWS V14.01,2013-01-24 03:07:00,
2013-01-23 22:12:00,17.0,12.5,30.17,NW,316,0.0,0.0,82,0.00,,---,0.00,VWS V14.01,2013-01-24 03:12:00,
2013-01-23 22:17:00,17.0,12.5,30.17,NW,316,0.0,0.0,82,0.00,,---,0.00,VWS V14.01,2013-01-24 03:17:00,
2013-01-23 22:22:00,16.9,12.4,30.17,NW,316,0.0,0.0,82,0.00,,---,0.00,VWS V14.01,2013-01-24 03:22:00,
2013-01-23 22:27:00,16.8,12.5,30.17,NW,316,0.0,0.0,83,0.00,,---,0.00,VWS V14.01,2013-01-24 03:27:00,
2013-01-23 22:32:00,16.7,12.4,30.17,NW,316,0.0,0.0,83,0.00,,---,0.00,VWS V14.01,2013-01-24 03:32:00,
2013-01-23 22:37:00,16.6,12.6,30.17,NW,316,0.0,0.0,84,0.00,,---,0.00,VWS V14.01,2013-01-24 03:37:00,
2013-01-23 22:42:00,16.5,12.5,30.17,NW,316,0.0,0.0,84,0.00,,---,0.00,VWS V14.01,2013-01-24 03:42:00,
2013-01-23 22:47:00,16.5,12.5,30.16,NW,316,0.0,0.0,84,0.00,,---,0.00,VWS V14.01,2013-01-24 03:47:00,
2013-01-23 22:52:00,16.4,12.7,30.16,NW,316,0.0,0.0,85,0.00,,---,0.00,VWS V14.01,2013-01-24 03:52:00,
2013-01-23 22:57:00,16.4,12.7,30.16,NW,316,0.0,0.0,85,0.00,,---,0.00,VWS V14.01,2013-01-24 03:57:00,
2013-01-23 23:02:00,16.4,12.7,30.15,NW,316,0.0,0.0,85,0.00,,---,0.00,VWS V14.01,2013-01-24 04:02:00,
2013-01-23 23:07:00,16.4,12.9,30.15,NW,316,0.0,0.0,86,0.00,,---,0.00,VWS V14.01,2013-01-24 04:07:00,
2013-01-23 23:12:00,16.4,12.9,30.15,NW,316,0.0,0.0,86,0.00,,---,0.00,VWS V14.01,2013-01-24 04:12:00,
2013-01-23 23:17:00,16.4,12.9,30.15,NW,316,0.0,0.0,86,0.00,,---,0.00,VWS V14.01,2013-01-24 04:17:00,
2013-01-23 23:22:00,16.4,12.9,30.15,NW,316,0.0,0.0,86,0.00,,---,0.00,VWS V14.01,2013-01-24 04:22:00,
2013-01-23 23:27:00,16.4,12.9,30.14,NW,316,0.0,0.0,86,0.00,,---,0.00,VWS V14.01,2013-01-24 04:27:00,
2013-01-23 23:32:00,16.4,12.9,30.14,NW,316,0.0,0.0,86,0.00,,---,0.00,VWS V14.01,2013-01-24 04:32:00,
2013-01-23 23:37:00,16.4,13.2,30.14,NW,316,0.0,0.0,87,0.00,,---,0.00,VWS V14.01,2013-01-24 04:37:00,
2013-01-23 23:42:00,16.4,13.2,30.14,NW,316,0.0,0.0,87,0.00,,---,0.00,VWS V14.01,2013-01-24 04:42:00,
2013-01-23 23:47:00,16.4,13.2,30.14,NW,316,0.0,0.0,87,0.00,,---,0.00,VWS V14.01,2013-01-24 04:47:00,
2013-01-23 23:52:00,16.5,13.3,30.13,NW,316,1.0,2.0,87,0.00,,---,0.00,VWS V14.01,2013-01-24 04:52:00,
2013-01-23 23:57:00,16.4,13.5,30.13,NW,316,1.0,1.0,88,0.00,,---,0.00,VWS V14.01,2013-01-24 04:57:00,